createdAt,value
2022-12-08T00:02:06.349Z,100.00
2022-12-08T00:07:31.642Z,100.00
2022-12-08T00:12:37.493Z,100.00
2022-12-08T00:17:43.335Z,100.00
2022-12-08T00:22:48.969Z,100.00
2022-12-08T00:27:54.572Z,100.00
2022-12-08T00:33:00.353Z,100.00
2022-12-08T00:38:06.317Z,100.00
2022-12-08T00:43:12.142Z,100.00
2022-12-08T00:48:17.774Z,99.53
2022-12-08T00:53:23.544Z,99.11
2022-12-08T00:58:29.186Z,98.53
2022-12-08T01:03:34.989Z,97.98
2022-12-08T01:08:41.508Z,97.66
2022-12-08T01:13:47.664Z,97.60
2022-12-08T01:18:53.991Z,97.76
2022-12-08T01:24:02.542Z,97.73
2022-12-08T01:29:08.443Z,97.59
2022-12-08T01:34:15.045Z,97.49
2022-12-08T01:39:20.925Z,97.42
2022-12-08T01:46:19.513Z,96.87
2022-12-08T01:51:25.613Z,96.82
2022-12-08T01:56:36.776Z,96.82
2022-12-08T02:01:42.573Z,96.41
2022-12-08T02:06:50.917Z,96.52
2022-12-08T02:11:58.973Z,96.50
2022-12-08T02:17:16.135Z,96.53
2022-12-08T02:22:29.949Z,96.56
2022-12-08T02:27:47.753Z,96.60
2022-12-08T02:33:27.723Z,96.24
2022-12-08T02:38:48.275Z,96.22
2022-12-08T02:44:00.481Z,96.29
2022-12-08T02:49:07.686Z,96.29
2022-12-08T02:54:15.166Z,96.52
2022-12-08T02:59:35.838Z,96.75
2022-12-08T03:04:50.702Z,96.92
2022-12-08T03:10:03.640Z,96.84
2022-12-08T03:15:13.176Z,96.66
2022-12-08T03:20:22.362Z,96.64
2022-12-08T03:25:33.569Z,96.56
2022-12-08T03:30:43.399Z,96.51
2022-12-08T03:35:50.576Z,96.43
2022-12-08T03:41:15.233Z,96.36
2022-12-08T03:51:27.677Z,96.44
2022-12-08T03:56:35.555Z,96.42
2022-12-08T04:01:41.675Z,96.69
2022-12-08T04:06:47.528Z,96.59
2022-12-08T04:11:53.212Z,96.63
2022-12-08T04:16:58.993Z,96.71
2022-12-08T04:22:04.824Z,96.73
2022-12-08T04:27:10.828Z,96.66
2022-12-08T04:32:16.633Z,96.41
2022-12-08T04:37:22.629Z,96.36
2022-12-08T04:42:28.286Z,96.22
2022-12-08T04:47:34.229Z,95.87
2022-12-08T04:52:40.049Z,95.52
2022-12-08T04:57:46.354Z,95.24
2022-12-08T05:02:52.087Z,95.29
2022-12-08T05:07:57.890Z,95.54
2022-12-08T05:13:03.724Z,96.05
2022-12-08T05:18:10.269Z,96.34
2022-12-08T05:23:15.836Z,96.68
2022-12-08T05:28:43.739Z,96.92
2022-12-08T05:33:49.045Z,97.11
2022-12-08T05:38:56.470Z,97.22
2022-12-08T05:44:02.409Z,97.02
2022-12-08T05:49:08.856Z,96.98
2022-12-08T05:54:15.322Z,96.70
2022-12-08T05:59:21.037Z,96.58
2022-12-08T06:04:26.968Z,96.68
2022-12-08T06:09:32.782Z,96.85
2022-12-08T06:14:39.199Z,97.22
2022-12-08T06:19:44.936Z,97.58
2022-12-08T06:24:50.533Z,97.71
2022-12-08T06:29:56.431Z,97.99
2022-12-08T06:35:02.063Z,98.09
2022-12-08T06:40:10.341Z,98.20
2022-12-08T06:45:17.751Z,98.17
2022-12-08T06:50:23.720Z,97.91
2022-12-08T07:00:55.368Z,97.29
2022-12-08T07:06:04.029Z,96.94
2022-12-08T07:11:14.137Z,96.36
2022-12-08T07:16:22.491Z,95.90
2022-12-08T07:21:28.282Z,95.52
2022-12-08T07:26:34.295Z,95.27
2022-12-08T07:31:40.487Z,94.95
2022-12-08T07:36:46.327Z,94.57
2022-12-08T07:41:51.955Z,94.06
2022-12-08T07:46:57.672Z,93.28
2022-12-08T07:52:03.579Z,92.85
2022-12-08T07:57:09.994Z,92.59
2022-12-08T08:02:24.960Z,92.19
2022-12-08T08:07:33.388Z,92.05
2022-12-08T08:12:40.275Z,91.86
2022-12-08T08:17:49.374Z,91.52
2022-12-08T08:22:55.188Z,91.59
2022-12-08T08:28:01.001Z,91.51
2022-12-08T08:33:06.760Z,91.15
2022-12-08T08:38:12.781Z,90.88
2022-12-08T08:43:37.616Z,90.67
2022-12-08T08:48:43.924Z,90.78
2022-12-08T08:53:49.687Z,90.73
2022-12-08T08:58:55.612Z,90.65
2022-12-08T09:04:01.650Z,90.47
2022-12-08T09:09:07.460Z,89.98
2022-12-08T09:14:15.356Z,89.67
2022-12-08T09:19:21.113Z,89.55
2022-12-08T09:24:27.085Z,89.04
2022-12-08T09:29:36.198Z,88.51
2022-12-08T09:34:45.380Z,87.90
2022-12-08T09:39:54.830Z,87.54
2022-12-08T09:45:09.390Z,86.62
2022-12-08T09:50:19.940Z,85.12
2022-12-08T09:55:36.441Z,84.10
2022-12-08T10:00:42.217Z,84.01
2022-12-08T10:06:03.173Z,83.84
2022-12-08T10:11:14.449Z,83.42
2022-12-08T10:16:28.143Z,82.95
2022-12-08T10:21:35.577Z,83.69
2022-12-08T10:26:41.286Z,83.75
2022-12-08T10:31:47.050Z,84.46
2022-12-08T10:36:56.079Z,84.78
2022-12-08T10:42:16.770Z,84.36
2022-12-08T10:47:24.415Z,84.35
2022-12-08T10:52:30.216Z,84.63
2022-12-08T10:57:40.110Z,84.73
2022-12-08T11:03:01.228Z,85.34
2022-12-08T11:08:05.996Z,85.12
2022-12-08T11:13:20.059Z,85.56
2022-12-08T11:18:31.156Z,85.81
2022-12-08T11:23:41.115Z,85.74
2022-12-08T11:28:46.725Z,85.77
2022-12-08T11:33:53.373Z,86.16
2022-12-08T11:39:49.266Z,86.07
2022-12-08T11:45:00.161Z,86.41
2022-12-08T11:50:21.073Z,86.77
2022-12-08T11:55:37.323Z,87.32
2022-12-08T12:00:45.413Z,87.86
2022-12-08T12:06:30.791Z,87.85
2022-12-08T12:12:02.865Z,87.57
2022-12-08T12:17:21.520Z,87.90
2022-12-08T12:22:33.309Z,88.64
2022-12-08T12:27:41.469Z,89.46
2022-12-08T12:32:51.734Z,90.18
2022-12-08T12:38:02.941Z,90.36
2022-12-08T12:43:27.707Z,90.36
2022-12-08T12:48:33.462Z,90.54
2022-12-08T12:53:52.211Z,90.69
2022-12-08T12:59:17.941Z,90.79
2022-12-08T13:04:31.551Z,90.62
2022-12-08T13:09:40.012Z,90.73
2022-12-08T13:14:51.096Z,91.12
2022-12-08T13:19:59.319Z,91.27
2022-12-08T13:25:37.080Z,91.48
2022-12-08T13:30:45.948Z,91.76
2022-12-08T13:36:04.977Z,92.32
2022-12-08T13:41:17.559Z,92.83
2022-12-08T13:57:28.801Z,93.62
2022-12-08T14:02:43.771Z,94.06
2022-12-08T14:07:55.270Z,94.47
2022-12-08T14:13:04.374Z,94.73
2022-12-08T14:18:25.217Z,94.92
2022-12-08T14:23:29.632Z,95.18
2022-12-08T14:28:37.801Z,95.59
2022-12-08T14:33:53.251Z,96.09
2022-12-08T14:39:02.121Z,96.42
2022-12-08T14:44:23.870Z,97.00
2022-12-08T14:49:37.075Z,97.50
2022-12-08T14:54:45.476Z,97.93
2022-12-08T14:59:53.137Z,98.30
2022-12-08T15:05:03.333Z,98.64
2022-12-08T15:10:22.987Z,98.63
2022-12-08T15:15:29.510Z,98.39
2022-12-08T15:20:42.932Z,98.26
2022-12-08T15:25:49.079Z,98.36
2022-12-08T15:30:55.270Z,98.65
2022-12-08T15:36:01.213Z,98.66
2022-12-08T15:41:10.200Z,98.53
2022-12-08T15:46:19.114Z,99.01
2022-12-08T15:51:25.048Z,99.38
2022-12-08T15:56:31.215Z,99.42
2022-12-08T16:01:38.138Z,99.41
2022-12-08T16:13:26.788Z,99.46
2022-12-08T16:18:02.513Z,99.61
2022-12-08T16:23:34.163Z,99.59
2022-12-08T16:34:00.008Z,99.29
2022-12-08T16:39:05.896Z,99.07
2022-12-08T16:44:11.844Z,98.93
2022-12-08T16:49:17.858Z,98.85
2022-12-08T16:54:23.617Z,98.77
2022-12-08T16:59:31.068Z,98.78
2022-12-08T17:04:36.811Z,98.71
2022-12-08T17:09:43.265Z,98.51
2022-12-08T17:14:49.397Z,98.56
2022-12-08T17:19:55.186Z,98.46
2022-12-08T17:25:04.750Z,98.24
2022-12-08T17:30:15.636Z,98.05
2022-12-08T17:35:21.877Z,97.86
2022-12-08T17:40:28.454Z,97.56
2022-12-08T17:45:34.542Z,97.25
2022-12-08T17:50:41.356Z,97.11
2022-12-08T17:55:53.377Z,96.87
2022-12-08T18:00:59.065Z,96.96
2022-12-08T18:06:08.907Z,96.86
2022-12-08T18:11:16.944Z,96.80
2022-12-08T18:16:25.432Z,96.73
2022-12-08T18:21:31.245Z,96.64
2022-12-08T18:26:37.061Z,96.47
2022-12-08T18:31:42.925Z,96.05
2022-12-08T18:36:48.870Z,95.73
2022-12-08T18:41:58.429Z,95.46
2022-12-08T18:47:04.020Z,95.16
2022-12-08T18:52:09.961Z,94.97
2022-12-08T18:57:17.399Z,94.80
2022-12-08T19:02:23.347Z,94.45
2022-12-08T19:07:29.287Z,94.32
2022-12-08T19:12:35.058Z,94.14
2022-12-08T19:17:47.817Z,93.89
2022-12-08T19:22:53.690Z,93.68
2022-12-08T19:28:00.374Z,93.75
2022-12-08T19:33:06.448Z,93.79
2022-12-08T19:38:12.736Z,93.99
2022-12-08T19:43:40.042Z,94.34
2022-12-08T19:48:46.152Z,94.68
2022-12-08T19:53:52.873Z,95.10
2022-12-08T19:58:58.589Z,95.61
2022-12-08T20:04:04.689Z,95.94
2022-12-08T20:09:11.514Z,96.07
2022-12-08T20:14:17.788Z,96.62
2022-12-08T20:19:23.736Z,96.65
2022-12-08T20:24:29.885Z,96.79
2022-12-08T20:29:35.880Z,97.03
2022-12-08T20:34:41.547Z,97.27
2022-12-08T20:39:47.609Z,97.65
2022-12-08T20:44:53.305Z,97.87
2022-12-08T20:49:59.315Z,98.01
2022-12-08T20:55:07.234Z,98.06
2022-12-08T21:00:14.499Z,98.11
2022-12-08T21:05:20.548Z,98.12
2022-12-08T21:10:27.068Z,98.04
2022-12-08T21:15:32.994Z,98.12
2022-12-08T21:20:38.837Z,98.09
2022-12-08T21:25:47.304Z,98.18
2022-12-08T21:30:53.368Z,98.49
2022-12-08T21:36:09.387Z,98.84
2022-12-08T21:41:37.966Z,99.14
2022-12-08T21:46:44.595Z,99.19
2022-12-08T21:51:50.724Z,98.64
2022-12-08T21:56:56.535Z,98.98
2022-12-08T22:02:02.592Z,99.40
2022-12-08T22:07:09.755Z,99.28
2022-12-08T22:12:16.931Z,99.64
2022-12-08T22:17:22.856Z,99.92
2022-12-08T22:22:29.173Z,99.90
2022-12-08T22:27:35.852Z,100.00
2022-12-08T22:32:42.342Z,100.00
2022-12-08T22:37:50.535Z,100.00
2022-12-08T22:42:56.255Z,100.00
2022-12-08T22:48:02.198Z,100.00
2022-12-08T22:53:08.048Z,100.00
2022-12-08T22:58:14.024Z,100.00
2022-12-08T23:03:20.122Z,100.00
2022-12-08T23:08:26.664Z,100.00
2022-12-08T23:13:32.425Z,100.00
2022-12-08T23:18:40.726Z,100.00
2022-12-08T23:23:47.342Z,100.00
2022-12-08T23:28:53.437Z,100.00
2022-12-08T23:33:59.116Z,100.00
2022-12-08T23:39:05.961Z,100.00
2022-12-08T23:44:12.413Z,100.00
2022-12-08T23:49:18.251Z,100.00
2022-12-08T23:54:24.319Z,100.00
2022-12-08T23:59:32.588Z,100.00
